METAR AND TAF INFORMATION
METAR FOR CYVO
ADDS - METARS form results

(1919 UTC 26 April 2018)
Data provider http://aviationweather.gov/adds/metars/
 
METAR text: CYVO 261900Z 34006KT 210V010 15SM FEW260 SCT290 09/M04 A2968 RMK CI1CI2 SLP066
Conditions at: CYVO (VAL D'OR AIRPORT, QC, CA) observed 1900 UTC 26 April 2018
Temperature: 9.0°C (48°F)
Dewpoint: -4.0°C (25°F) [RH = 40%]
Pressure (altimeter): 29.68 inches Hg (1005.2 mb)
[Sea-level pressure: 1006.6 mb]
Winds: from the NNW (340 degrees) at 7 MPH (6 knots; 3.1 m/s)
Visibility: 15 miles (24 km)
Ceiling: at least 12,000 feet AGL
Clouds: few clouds at 26000 feet AGL
scattered clouds at 29000 feet AGL
Weather: no significant weather observed at this time

Forecast for: CYVO (VAL D'OR AIRPORT, QC, CA)
Text: TAF CYVO 261750Z 2618/2706 32006KT P6SM FEW020
Forecast period: 1800 to 2000 UTC 26 April 2018
Forecast type: FROM: standard forecast or significant change
Winds: from the NW (320 degrees) at 7 MPH (6 knots; 3.1 m/s)
Visibility: 6 or more miles (10+ km)
Clouds: few clouds at 2000 feet AGL
Weather: no significant weather forecast for this period
Forecast for: CYVO (VAL D'OR AIRPORT, QC, CA)
Text: TAF CYVO 261750Z 2618/2706 32006KT P6SM FEW020
Forecast period: 1800 to 2000 UTC 26 April 2018
Forecast type: FROM: standard forecast or significant change
Winds: from the NW (320 degrees) at 7 MPH (6 knots; 3.1 m/s)
Visibility: 6 or more miles (10+ km)
Clouds: few clouds at 2000 feet AGL
Weather: no significant weather forecast for this period
Forecast for: CYVO (VAL D'OR AIRPORT, QC, CA)
Text: TAF CYVO 261750Z 2618/2706 32006KT P6SM FEW020
Forecast period: 2000 UTC 26 April 2018 to 0600 UTC 27 April 2018
Forecast type: FROM: standard forecast or significant change
Winds: from the NW (310 degrees) at 7 MPH (6 knots; 3.1 m/s)
Visibility: 6 or more miles (10+ km)
Clouds: scattered clouds at 24000 feet AGL
Weather: no significant weather forecast for this period
Forecast for: CYVO (VAL D'OR AIRPORT, QC, CA)
Text: TAF CYVO 261750Z 2618/2706 32006KT P6SM FEW020
Forecast period: 2000 UTC 26 April 2018 to 0600 UTC 27 April 2018
Forecast type: FROM: standard forecast or significant change
Winds: from the NW (310 degrees) at 7 MPH (6 knots; 3.1 m/s)
Visibility: 6 or more miles (10+ km)
Clouds: scattered clouds at 24000 feet AGL
Weather: no significant weather forecast for this period
Forecast for: CYVO (VAL D'OR AIRPORT, QC, CA)
Text: TAF CYVO 261750Z 2618/2706 32006KT P6SM FEW020
Forecast period: 2000 UTC 26 April 2018 to 0600 UTC 27 April 2018
Forecast type: BECOMING: Conditions expected to become as follows by 2200 UTC 26 April 2018
Winds: from the SSW (210 degrees) at 7 MPH (6 knots; 3.1 m/s)
Visibility: 6 or more miles (10+ km)
Clouds: scattered clouds at 24000 feet AGL
Weather: no significant weather forecast for this period
Forecast for: CYVO (VAL D'OR AIRPORT, QC, CA)
Text: TAF CYVO 261750Z 2618/2706 32006KT P6SM FEW020
Forecast period: 2000 UTC 26 April 2018 to 0600 UTC 27 April 2018
Forecast type: BECOMING: Conditions expected to become as follows by 2200 UTC 26 April 2018
Winds: from the SSW (210 degrees) at 7 MPH (6 knots; 3.1 m/s)
Visibility: 6 or more miles (10+ km)
Clouds: scattered clouds at 24000 feet AGL
Weather: no significant weather forecast for this period

 AIRPORT MAP

 RUNWAY INFORMATION
Runway 18 Runway length 10000 ft Runway width 150 ft
Runway elevation 1102 ft Runway displaced threshold 0 ft Runway heading 169
Runway 36 Runway length 10000 ft Runway width 150 ft
Runway elevation 1100 ft Runway displaced threshold 0 ft Runway heading 349

 AIRPORT FREQUENCIES
Type MF Name Val-d'Or R Frequency 118.5 MHZ
Type PAL Name Montreal C Frequency 125.9 MHZ
Type RADIO Name Val-d'Or R Frequency 118.5 MHZ
Type RCO Name Quebec Rad Frequency 126.7 MHZ

 AIRPORT NEAR NAVIGATION AIDS
Type NDB Name Val-d'Or Frequency 239 KHZ
Type VOR-DME Name Val-d'Or Frequency 113700 KHZ



v2.6.1